Seymour, Missouri
Current Conditions -  °F | °C
As of 11:52 PM on Tuesday 21 Oct 2014 (Local Time) from KSGF Reporting Station
Clear Clear  
Wind Chill: 53°   Ceiling: Unl
Heat Index: 53°   Visibility: 10mi
Dew Point: 44°   Wind: 6mph
Humidity: 71%   Direction: 110°ESE
Pressure: 30.13"   Gusts: NA
Location:  37.15°N, 92.77°W
Report Text: KSGF 220452Z 11005KT 10SM CLR 12/07 A3013 RMK AO2 SLP196 T01170067
Loading
Personal Weather Stations






























Interactive Weather Map
Tropical Storm Tracking
New forecast layout! Learn more

10-Day Weather Forecast

Advertisements
Track Severe Weather on mobile